createdAt,value
2023-01-27T00:08:26.391Z,55.15
2023-01-27T00:23:49.107Z,46.15
2023-01-27T00:38:51.124Z,45.88
2023-01-27T00:53:53.206Z,42.33
2023-01-27T01:08:57.653Z,42.70
2023-01-27T01:23:59.726Z,46.85
2023-01-27T01:39:01.859Z,44.47
2023-01-27T01:54:09.605Z,43.38
2023-01-27T02:24:14.136Z,46.83
2023-01-27T02:39:19.032Z,45.17
2023-01-27T02:54:21.041Z,45.85
2023-01-27T03:09:23.017Z,46.47
2023-01-27T03:24:25.105Z,47.33
2023-01-27T03:39:45.617Z,46.40
2023-01-27T03:54:47.601Z,46.78
2023-01-27T04:09:50.451Z,48.38
2023-01-27T04:24:52.403Z,49.88
2023-01-27T04:39:54.422Z,49.47
2023-01-27T04:54:56.420Z,29.83
2023-01-27T05:09:58.876Z,22.60
2023-01-27T05:25:00.927Z,26.27
2023-01-27T05:40:03.035Z,28.90
2023-01-27T05:55:05.455Z,28.88
2023-01-27T06:10:07.861Z,27.88
2023-01-27T06:25:09.950Z,25.80
2023-01-27T06:40:12.498Z,26.90
2023-01-27T06:55:15.289Z,27.20
2023-01-27T07:10:17.544Z,28.60
2023-01-27T07:25:19.536Z,27.65
2023-01-27T07:40:21.697Z,28.55
2023-01-27T07:55:23.708Z,27.20
2023-01-27T08:10:25.701Z,25.48
2023-01-27T08:25:28.026Z,22.63
2023-01-27T08:40:30.031Z,23.02
2023-01-27T08:55:33.302Z,23.52
2023-01-27T09:10:39.625Z,25.33
2023-01-27T09:25:41.589Z,73.45
2023-01-27T09:41:24.483Z,68.20
2023-01-27T09:56:32.502Z,66.78
2023-01-27T10:12:03.545Z,67.85
2023-01-27T10:27:12.743Z,54.15
2023-01-27T10:42:24.227Z,48.92
2023-01-27T10:57:37.393Z,41.97
2023-01-27T11:12:43.755Z,45.88
2023-01-27T11:28:07.219Z,47.67
2023-01-27T11:43:17.641Z,53.67
2023-01-27T11:58:37.570Z,58.08
2023-01-27T12:13:49.600Z,55.85
2023-01-27T12:28:53.297Z,48.80
2023-01-27T12:44:25.651Z,48.13
2023-01-27T12:59:28.560Z,47.08
2023-01-27T13:14:35.664Z,48.38
2023-01-27T13:29:39.815Z,57.83
2023-01-27T13:44:44.367Z,49.08
2023-01-27T14:00:19.812Z,49.75
2023-01-27T14:15:42.353Z,50.33
2023-01-27T14:30:56.049Z,53.53
2023-01-27T14:46:24.363Z,47.63
2023-01-27T15:01:26.313Z,43.58
2023-01-27T15:16:54.282Z,44.03
2023-01-27T15:32:15.498Z,45.42
2023-01-27T15:47:23.771Z,42.13
2023-01-27T16:02:29.025Z,41.45
2023-01-27T16:17:34.251Z,40.35
2023-01-27T16:32:40.942Z,45.28
2023-01-27T16:47:49.999Z,43.97
2023-01-27T17:02:53.654Z,45.33
2023-01-27T17:17:57.426Z,42.15
2023-01-27T17:33:01.716Z,43.78
2023-01-27T17:48:04.829Z,41.67
2023-01-27T18:03:34.598Z,36.08
2023-01-27T18:18:36.783Z,38.78
2023-01-27T18:33:39.060Z,38.33
2023-01-27T18:48:41.052Z,39.47
2023-01-27T19:03:43.075Z,40.28
2023-01-27T19:18:45.223Z,39.05
2023-01-27T19:33:47.638Z,39.55
2023-01-27T19:48:49.710Z,41.30
2023-01-27T20:03:52.605Z,39.67
2023-01-27T20:18:54.953Z,40.05
2023-01-27T20:33:56.926Z,39.95
2023-01-27T20:48:59.637Z,38.67
2023-01-27T21:04:01.651Z,38.15
2023-01-27T21:19:03.773Z,39.50
2023-01-27T21:34:06.374Z,40.13
2023-01-27T21:49:08.366Z,37.15
2023-01-27T22:04:10.464Z,35.85
2023-01-27T22:19:12.466Z,36.22
2023-01-27T22:34:14.880Z,33.72
2023-01-27T22:49:17.156Z,31.52
2023-01-27T23:04:19.119Z,32.13
2023-01-27T23:19:22.034Z,31.98
2023-01-27T23:34:24.235Z,33.30
2023-01-27T23:49:27.452Z,34.30
